Time;durP1;ratioP1;P1;durP2;ratioP2;P2;SDS_P1;SDS_P2;PMS_P1;PMS_P2;Temp;Humidity;BMP_temperature;BMP_pressure;BME280_temperature;BME280_humidity;BME280_pressure;Samples;Min_cycle;Max_cycle;Signal;HPM_P1;HPM_P2
2022/08/06 00:00:53;;;;;;;6.40;3.05;;;10.50;96.70;;;;;;5027879;28;20116;-71
2022/08/06 00:03:18;;;;;;;7.35;3.17;;;10.50;96.80;;;;;;5019256;28;20037;-72
2022/08/06 00:05:44;;;;;;;7.78;3.67;;;10.50;96.60;;;;;;5028441;28;20420;-72
2022/08/06 00:08:09;;;;;;;4.82;3.13;;;10.50;96.70;;;;;;5029602;28;20069;-72
2022/08/06 00:10:35;;;;;;;7.38;3.20;;;10.50;96.70;;;;;;5029060;28;20480;-72
2022/08/06 00:13:01;;;;;;;9.07;3.55;;;10.50;96.70;;;;;;5027478;28;20033;-72
2022/08/06 00:15:27;;;;;;;9.57;3.75;;;10.40;96.70;;;;;;5025146;28;20035;-72
2022/08/06 00:17:52;;;;;;;6.28;3.40;;;10.50;97.00;;;;;;5016138;28;20441;-72
2022/08/06 00:20:18;;;;;;;7.20;3.50;;;10.50;97.00;;;;;;5017039;28;20091;-72
2022/08/06 00:22:43;;;;;;;8.50;3.55;;;10.50;96.90;;;;;;5028413;28;20040;-72
2022/08/06 00:25:12;;;;;;;5.30;3.15;;;10.50;97.00;;;;;;5026081;28;21752;-72
2022/08/06 00:27:38;;;;;;;5.10;3.22;;;10.50;96.90;;;;;;5023083;28;20033;-72
2022/08/06 00:30:08;;;;;;;7.07;3.38;;;10.40;96.80;;;;;;5024911;28;20513;-72
2022/08/06 00:32:34;;;;;;;6.85;3.97;;;10.50;97.00;;;;;;5023834;28;20044;-72
2022/08/06 00:35:00;;;;;;;6.88;3.85;;;10.40;97.00;;;;;;5028787;28;20026;-72
2022/08/06 00:37:28;;;;;;;6.80;3.63;;;10.30;96.80;;;;;;5027662;28;20531;-72
2022/08/06 00:39:54;;;;;;;9.02;3.30;;;10.30;96.80;;;;;;5028726;28;20438;-72
2022/08/06 00:42:20;;;;;;;6.95;3.30;;;10.30;97.00;;;;;;5025266;28;20087;-72
2022/08/06 00:44:45;;;;;;;6.88;3.55;;;10.30;96.90;;;;;;5013917;28;20030;-72
2022/08/06 00:47:11;;;;;;;6.15;3.65;;;10.30;97.00;;;;;;5021463;28;20022;-72
2022/08/06 00:49:36;;;;;;;7.32;3.65;;;10.30;97.20;;;;;;5026886;28;20029;-73
2022/08/06 00:52:02;;;;;;;5.55;3.33;;;10.30;97.10;;;;;;5026556;28;20021;-72
2022/08/06 00:54:28;;;;;;;8.63;3.75;;;10.30;97.10;;;;;;5023053;28;20116;-72
2022/08/06 00:56:53;;;;;;;6.10;3.33;;;10.30;97.20;;;;;;5028175;28;20022;-72
2022/08/06 00:59:19;;;;;;;7.07;3.28;;;10.30;97.20;;;;;;5024816;28;20480;-72
2022/08/06 01:01:44;;;;;;;6.88;3.75;;;10.30;97.20;;;;;;5026334;28;20017;-72
2022/08/06 01:04:10;;;;;;;6.30;3.53;;;10.30;97.20;;;;;;5026740;28;20354;-72
2022/08/06 01:06:35;;;;;;;6.97;3.75;;;10.40;97.30;;;;;;5025151;28;20037;-72
2022/08/06 01:09:01;;;;;;;8.93;4.18;;;10.40;97.30;;;;;;5027110;28;20025;-72
2022/08/06 01:11:26;;;;;;;6.70;3.95;;;10.50;97.30;;;;;;5017400;28;20116;-72
2022/08/06 01:13:52;;;;;;;7.97;3.67;;;10.60;97.30;;;;;;5028554;28;20057;-72
2022/08/06 01:16:40;;;;;;;10.50;4.10;;;10.60;97.20;;;;;;5023418;28;20034;-72
2022/08/06 01:19:26;;;;;;;7.35;3.75;;;10.70;97.10;;;;;;5020060;28;20033;-72
2022/08/06 01:22:01;;;;;;;6.65;3.88;;;10.70;97.00;;;;;;5023342;28;20156;-72
2022/08/06 01:24:39;;;;;;;7.75;4.18;;;10.60;97.00;;;;;;5023117;28;20048;-72
2022/08/06 01:27:32;;;;;;;9.27;3.60;;;10.60;97.00;;;;;;5026813;28;20326;-72
2022/08/06 01:30:15;;;;;;;7.75;3.58;;;10.60;96.90;;;;;;5024166;28;20029;-72
2022/08/06 01:32:48;;;;;;;7.97;3.28;;;10.70;96.90;;;;;;5019024;28;20036;-72
2022/08/06 01:35:22;;;;;;;7.18;3.47;;;10.60;96.80;;;;;;5019907;28;20067;-72
2022/08/06 01:38:05;;;;;;;7.78;3.58;;;10.60;96.70;;;;;;5021212;28;20614;-72
2022/08/06 01:40:34;;;;;;;6.55;3.35;;;10.60;96.70;;;;;;5023233;28;20065;-72
2022/08/06 01:43:01;;;;;;;4.63;2.95;;;10.60;96.70;;;;;;5026596;28;20071;-72
2022/08/06 01:45:30;;;;;;;5.78;3.17;;;10.50;96.70;;;;;;5029699;28;20132;-72
2022/08/06 01:48:00;;;;;;;4.78;3.08;;;10.50;96.70;;;;;;5031029;28;20546;-72
2022/08/06 01:50:34;;;;;;;6.55;2.97;;;10.50;96.70;;;;;;5028599;28;20523;-72
2022/08/06 01:53:03;;;;;;;5.72;2.88;;;10.50;96.80;;;;;;5028291;28;20041;-71
2022/08/06 01:55:33;;;;;;;6.93;2.88;;;10.40;96.80;;;;;;5026373;28;20034;-72
2022/08/06 01:58:02;;;;;;;6.35;3.05;;;10.40;96.90;;;;;;5027024;28;20021;-72
2022/08/06 02:00:28;;;;;;;7.72;3.15;;;10.40;97.00;;;;;;5027560;28;20055;-72
2022/08/06 02:02:57;;;;;;;5.00;2.92;;;10.40;96.90;;;;;;5028144;28;20378;-72
2022/08/06 02:05:24;;;;;;;7.60;3.00;;;10.40;97.00;;;;;;5031372;28;20053;-72
2022/08/06 02:07:52;;;;;;;5.65;3.00;;;10.50;97.00;;;;;;5030405;28;20025;-72
2022/08/06 02:10:21;;;;;;;6.65;3.30;;;10.50;97.10;;;;;;5020207;28;20038;-72
2022/08/06 02:12:48;;;;;;;7.60;2.92;;;10.50;97.00;;;;;;5027615;28;20048;-71
2022/08/06 02:15:20;;;;;;;4.15;2.70;;;10.50;96.90;;;;;;5023099;28;20024;-72
2022/08/06 02:17:56;;;;;;;4.40;2.67;;;10.50;96.90;;;;;;5023353;28;20112;-72
2022/08/06 02:20:27;;;;;;;7.45;2.90;;;10.40;96.90;;;;;;5021746;28;20397;-72
2022/08/06 02:22:55;;;;;;;6.82;3.22;;;10.40;97.00;;;;;;5030163;28;20373;-72
2022/08/06 02:25:21;;;;;;;5.07;2.70;;;10.30;96.90;;;;;;5026313;28;20040;-72
2022/08/06 02:27:50;;;;;;;4.40;2.90;;;10.30;97.00;;;;;;5029303;28;20030;-72
2022/08/06 02:30:16;;;;;;;7.90;2.90;;;10.20;97.00;;;;;;5029390;28;20053;-72
2022/08/06 02:32:42;;;;;;;4.85;2.85;;;10.20;97.10;;;;;;5024946;28;20136;-72
2022/08/06 02:35:09;;;;;;;5.85;3.22;;;10.20;97.20;;;;;;5028708;28;20481;-72
2022/08/06 02:37:52;;;;;;;5.43;3.35;;;10.20;97.20;;;;;;5027827;28;20053;-72
2022/08/06 02:40:24;;;;;;;5.13;3.25;;;10.10;97.20;;;;;;5024355;28;20041;-72
2022/08/06 02:42:57;;;;;;;7.53;3.70;;;10.10;97.30;;;;;;5029742;28;20050;-72
2022/08/06 02:45:39;;;;;;;5.65;3.33;;;10.00;97.30;;;;;;5029314;28;20025;-72
2022/08/06 02:48:16;;;;;;;6.35;3.17;;;10.00;97.40;;;;;;5025185;28;20032;-72
2022/08/06 02:50:44;;;;;;;6.15;3.10;;;10.00;97.40;;;;;;5029064;28;20181;-72
2022/08/06 02:53:15;;;;;;;6.07;3.63;;;10.10;97.50;;;;;;5023256;28;20049;-72
2022/08/06 02:55:49;;;;;;;5.05;3.40;;;10.10;97.60;;;;;;5027417;28;20032;-72
2022/08/06 02:58:26;;;;;;;5.20;3.00;;;10.00;97.50;;;;;;5028508;28;20457;-72
2022/08/06 03:00:52;;;;;;;8.32;3.22;;;9.90;97.50;;;;;;5018146;28;20497;-72
2022/08/06 03:03:22;;;;;;;5.65;3.38;;;9.90;97.60;;;;;;5025621;28;20025;-72
2022/08/06 03:05:50;;;;;;;7.75;4.05;;;9.90;97.70;;;;;;5025448;28;20091;-72
2022/08/06 03:08:20;;;;;;;6.50;3.75;;;9.90;97.70;;;;;;5027384;28;20021;-72
2022/08/06 03:10:47;;;;;;;5.55;3.75;;;9.90;97.80;;;;;;5026921;28;20029;-72
2022/08/06 03:13:13;;;;;;;5.47;3.67;;;9.90;97.90;;;;;;5027137;28;20025;-72
2022/08/06 03:15:40;;;;;;;6.60;3.65;;;9.90;97.90;;;;;;5029572;28;20040;-72
2022/08/06 03:18:06;;;;;;;7.53;3.72;;;9.90;97.90;;;;;;5026361;28;20025;-72
2022/08/06 03:20:33;;;;;;;10.02;4.43;;;9.90;98.00;;;;;;5025740;28;20104;-72
2022/08/06 03:23:01;;;;;;;5.90;4.18;;;10.00;98.00;;;;;;5028678;28;20476;-72
2022/08/06 03:25:29;;;;;;;8.38;4.75;;;9.90;98.00;;;;;;5024596;28;20069;-72
2022/08/06 03:27:56;;;;;;;8.68;4.40;;;9.90;98.00;;;;;;5026311;28;20040;-72
2022/08/06 03:30:23;;;;;;;12.48;3.97;;;9.90;98.00;;;;;;5029293;28;20476;-72
2022/08/06 03:32:49;;;;;;;8.35;4.47;;;9.90;98.00;;;;;;5025771;28;20080;-72
2022/08/06 03:35:16;;;;;;;7.38;4.25;;;9.80;97.90;;;;;;5027151;28;20033;-72
2022/08/06 03:37:43;;;;;;;5.90;4.38;;;9.80;98.00;;;;;;5026521;28;20037;-72
2022/08/06 03:40:11;;;;;;;5.88;3.92;;;9.80;98.00;;;;;;5024689;28;20044;-72
2022/08/06 03:42:37;;;;;;;6.97;4.38;;;9.80;98.00;;;;;;5023219;28;20048;-72
2022/08/06 03:45:03;;;;;;;7.57;4.18;;;9.80;98.00;;;;;;5029687;28;20041;-72
2022/08/06 03:47:32;;;;;;;9.10;4.35;;;9.80;98.00;;;;;;5027463;28;20045;-72
2022/08/06 03:50:20;;;;;;;7.47;4.38;;;9.80;98.10;;;;;;5029651;28;20048;-72
2022/08/06 03:52:54;;;;;;;6.03;3.80;;;9.70;98.10;;;;;;5020860;28;20096;-72
2022/08/06 03:55:23;;;;;;;6.45;4.07;;;9.70;98.10;;;;;;5011483;28;20052;-72
2022/08/06 03:57:51;;;;;;;7.47;4.05;;;9.70;98.10;;;;;;5028732;28;20033;-72
2022/08/06 04:00:21;;;;;;;7.22;4.40;;;9.60;98.00;;;;;;5023789;28;20034;-72
2022/08/06 04:02:49;;;;;;;5.50;3.65;;;9.50;97.90;;;;;;5020980;28;20397;-72
2022/08/06 04:05:18;;;;;;;11.27;3.70;;;9.50;97.90;;;;;;5025864;28;20034;-72
2022/08/06 04:07:44;;;;;;;7.18;3.92;;;9.40;97.90;;;;;;5027846;28;20022;-72
2022/08/06 04:10:11;;;;;;;5.95;4.00;;;9.40;97.90;;;;;;5028872;28;20034;-72
2022/08/06 04:12:37;;;;;;;6.55;4.05;;;9.40;97.90;;;;;;5024404;28;20030;-72
2022/08/06 04:15:05;;;;;;;7.10;4.32;;;9.30;97.90;;;;;;5020082;28;20045;-72
2022/08/06 04:17:31;;;;;;;7.93;4.00;;;9.40;97.90;;;;;;5026834;28;20029;-72
2022/08/06 04:19:59;;;;;;;7.88;4.45;;;9.40;97.90;;;;;;5028318;28;20120;-73
2022/08/06 04:22:25;;;;;;;6.88;4.65;;;9.40;97.90;;;;;;5026893;28;20029;-72
2022/08/06 04:24:50;;;;;;;8.32;5.20;;;9.50;98.10;;;;;;5026738;28;20040;-72
2022/08/06 04:27:18;;;;;;;8.00;4.82;;;9.50;98.10;;;;;;5024618;28;20100;-72
2022/08/06 04:29:46;;;;;;;7.03;4.70;;;9.60;98.20;;;;;;5023640;28;20018;-72
2022/08/06 04:32:15;;;;;;;8.93;5.93;;;9.70;98.20;;;;;;5021684;28;20026;-73
2022/08/06 04:34:43;;;;;;;9.52;5.82;;;9.80;98.20;;;;;;5019958;28;20476;-72
2022/08/06 04:37:09;;;;;;;10.77;5.97;;;9.80;98.30;;;;;;5028139;28;20436;-73
2022/08/06 04:39:35;;;;;;;10.93;5.72;;;9.80;98.20;;;;;;5024076;28;20032;-73
2022/08/06 04:42:02;;;;;;;11.45;5.82;;;9.90;98.30;;;;;;5026958;28;20029;-73
2022/08/06 04:44:28;;;;;;;11.50;6.47;;;9.90;98.30;;;;;;5027781;28;20046;-73
2022/08/06 04:46:55;;;;;;;11.55;6.13;;;10.00;98.40;;;;;;5027167;28;20326;-73
2022/08/06 04:49:20;;;;;;;9.18;6.00;;;10.00;98.30;;;;;;5021692;28;20029;-73
2022/08/06 04:51:49;;;;;;;12.20;6.50;;;10.10;98.30;;;;;;5026154;28;20530;-73
2022/08/06 04:54:15;;;;;;;10.65;6.32;;;10.10;98.30;;;;;;5027238;28;20049;-73
2022/08/06 04:56:41;;;;;;;11.15;6.78;;;10.20;98.40;;;;;;5025977;28;20042;-72
2022/08/06 04:59:08;;;;;;;11.10;6.90;;;10.20;98.30;;;;;;5021976;28;20029;-73
2022/08/06 05:01:34;;;;;;;12.00;6.68;;;10.30;98.30;;;;;;5023687;28;20136;-73
2022/08/06 05:03:59;;;;;;;9.55;6.45;;;10.30;98.20;;;;;;5027432;28;20048;-73
2022/08/06 05:06:29;;;;;;;10.00;6.25;;;10.30;98.20;;;;;;5026587;28;20477;-73
2022/08/06 05:09:01;;;;;;;11.48;6.78;;;10.30;98.10;;;;;;5027815;28;20056;-73
2022/08/06 05:11:34;;;;;;;10.88;6.10;;;10.40;98.10;;;;;;5027514;28;20029;-73
2022/08/06 05:14:04;;;;;;;10.60;6.22;;;10.50;98.10;;;;;;5027736;28;20496;-73
2022/08/06 05:16:34;;;;;;;8.52;6.03;;;10.50;97.90;;;;;;5027252;28;20440;-73
2022/08/06 05:19:08;;;;;;;10.15;5.75;;;10.50;97.90;;;;;;5030162;28;20469;-73
2022/08/06 05:21:37;;;;;;;9.52;5.65;;;10.60;97.90;;;;;;5027796;28;20152;-73
2022/08/06 05:24:03;;;;;;;10.25;5.65;;;10.60;97.80;;;;;;5021465;28;20095;-73
2022/08/06 05:26:29;;;;;;;7.70;5.25;;;10.70;97.80;;;;;;5028460;28;20040;-71
2022/08/06 05:28:55;;;;;;;10.07;5.47;;;10.70;97.80;;;;;;5029721;28;20021;-70
2022/08/06 05:31:34;;;;;;;10.85;5.47;;;10.80;97.80;;;;;;5030930;28;20025;-70
2022/08/06 05:34:01;;;;;;;7.82;5.10;;;10.90;97.80;;;;;;5032163;28;20563;-70
2022/08/06 05:36:26;;;;;;;8.55;5.45;;;11.00;97.70;;;;;;5029472;28;20037;-70
2022/08/06 05:38:55;;;;;;;11.35;5.50;;;11.10;97.60;;;;;;5027870;28;20033;-70
2022/08/06 05:41:21;;;;;;;8.57;5.38;;;11.10;97.50;;;;;;5030393;28;20501;-70
2022/08/06 05:43:47;;;;;;;10.50;5.35;;;11.20;97.40;;;;;;5018761;28;20058;-70
2022/08/06 05:46:19;;;;;;;9.95;5.60;;;11.30;97.30;;;;;;5029627;28;20018;-70
2022/08/06 05:49:01;;;;;;;8.63;5.32;;;11.40;97.30;;;;;;5031218;28;20361;-70
2022/08/06 05:51:51;;;;;;;12.80;5.40;;;11.50;97.30;;;;;;5032710;28;20127;-70
2022/08/06 05:54:32;;;;;;;14.75;5.57;;;11.70;97.20;;;;;;5029217;28;20060;-70
2022/08/06 05:57:06;;;;;;;9.02;4.82;;;11.70;96.90;;;;;;5027755;28;20037;-70
2022/08/06 05:59:37;;;;;;;6.68;4.47;;;11.90;96.60;;;;;;5017006;28;20022;-70
2022/08/06 06:02:03;;;;;;;13.70;5.20;;;12.00;96.20;;;;;;5029454;28;20404;-70
2022/08/06 06:04:32;;;;;;;7.95;3.95;;;12.10;95.90;;;;;;5025442;28;20487;-70
2022/08/06 06:06:58;;;;;;;7.70;3.90;;;12.30;95.50;;;;;;5026437;28;20064;-70
2022/08/06 06:09:24;;;;;;;8.10;3.80;;;12.40;95.30;;;;;;5020427;28;20018;-70
2022/08/06 06:11:50;;;;;;;8.25;3.55;;;12.60;94.50;;;;;;5031379;28;20056;-70
2022/08/06 06:14:27;;;;;;;4.72;3.03;;;12.70;94.20;;;;;;5028419;28;20080;-70
2022/08/06 06:17:16;;;;;;;6.22;3.10;;;12.90;94.00;;;;;;5028941;28;20037;-70
2022/08/06 06:19:55;;;;;;;5.60;2.78;;;13.00;93.40;;;;;;5024806;28;20045;-70
2022/08/06 06:22:35;;;;;;;2.95;2.20;;;13.10;92.80;;;;;;5026235;28;20026;-70
2022/08/06 06:25:19;;;;;;;4.60;2.28;;;13.30;92.50;;;;;;5026516;28;20084;-70
2022/08/06 06:28:02;;;;;;;5.50;2.35;;;13.40;92.10;;;;;;5027530;28;20453;-70
2022/08/06 06:30:50;;;;;;;5.38;2.03;;;13.60;91.60;;;;;;5028306;28;20029;-70
2022/08/06 06:33:36;;;;;;;1.98;1.63;;;13.60;91.40;;;;;;5015018;28;20037;-70
2022/08/06 06:36:09;;;;;;;2.75;1.50;;;13.80;91.40;;;;;;5019552;28;20029;-70
2022/08/06 06:38:51;;;;;;;5.35;1.52;;;14.00;90.40;;;;;;5022921;28;20061;-70
2022/08/06 06:41:23;;;;;;;1.27;1.05;;;14.20;89.60;;;;;;5023840;28;20057;-70
2022/08/06 06:43:55;;;;;;;2.95;1.10;;;14.40;88.50;;;;;;5024191;28;20036;-70
2022/08/06 06:46:29;;;;;;;1.08;0.98;;;14.50;88.60;;;;;;5021866;28;20060;-70
2022/08/06 06:49:00;;;;;;;6.22;1.08;;;14.60;88.10;;;;;;5025312;28;20373;-70
2022/08/06 06:51:33;;;;;;;1.73;0.80;;;14.60;87.80;;;;;;5025829;28;20437;-70
2022/08/06 06:53:59;;;;;;;4.95;1.00;;;15.00;87.20;;;;;;5022230;28;20436;-70
2022/08/06 06:56:30;;;;;;;4.38;0.82;;;15.00;86.50;;;;;;5019737;28;20033;-71
2022/08/06 06:59:04;;;;;;;3.45;1.00;;;15.10;85.40;;;;;;5028698;28;20038;-70
2022/08/06 07:01:33;;;;;;;3.42;0.80;;;15.20;85.80;;;;;;5021366;28;20033;-70
2022/08/06 07:04:02;;;;;;;1.73;0.88;;;15.30;85.40;;;;;;5025788;28;20125;-70
2022/08/06 07:06:29;;;;;;;1.95;0.90;;;15.50;85.10;;;;;;5030037;28;20116;-70
2022/08/06 07:08:57;;;;;;;2.22;0.70;;;15.60;83.40;;;;;;5028403;28;20036;-70
2022/08/06 07:11:25;;;;;;;1.88;0.80;;;15.70;83.40;;;;;;5022631;28;20032;-70
2022/08/06 07:13:52;;;;;;;3.95;0.80;;;15.60;82.20;;;;;;5025695;28;20038;-70
2022/08/06 07:16:20;;;;;;;2.88;0.70;;;15.80;82.50;;;;;;5023770;28;20463;-68
2022/08/06 07:18:48;;;;;;;4.68;0.85;;;15.90;82.70;;;;;;5026286;28;20163;-68
2022/08/06 07:21:16;;;;;;;1.13;0.85;;;16.00;82.50;;;;;;5026020;28;20021;-69
2022/08/06 07:23:45;;;;;;;1.05;0.50;;;15.90;81.80;;;;;;5027217;28;20465;-70
2022/08/06 07:26:13;;;;;;;1.75;0.82;;;16.10;81.80;;;;;;5022569;28;20030;-70
2022/08/06 07:28:39;;;;;;;3.95;0.65;;;16.30;81.30;;;;;;5019815;28;20028;-69
2022/08/06 07:31:06;;;;;;;3.08;0.65;;;16.50;80.60;;;;;;5021801;28;20317;-69
2022/08/06 07:33:34;;;;;;;2.17;0.70;;;16.50;80.10;;;;;;5028060;28;20026;-69
2022/08/06 07:36:00;;;;;;;1.20;0.50;;;16.60;79.50;;;;;;5026504;28;20548;-69
2022/08/06 07:38:28;;;;;;;0.75;0.40;;;16.80;78.70;;;;;;5022592;28;20398;-69
2022/08/06 07:40:57;;;;;;;2.45;0.43;;;17.00;79.10;;;;;;5015857;28;20033;-70
2022/08/06 07:43:27;;;;;;;2.80;0.77;;;17.00;77.00;;;;;;5015723;28;20026;-70
2022/08/06 07:45:55;;;;;;;0.57;0.38;;;17.00;76.20;;;;;;5022854;28;20184;-70
2022/08/06 07:48:27;;;;;;;4.50;0.77;;;17.00;75.70;;;;;;5025627;28;20029;-70
2022/08/06 07:50:54;;;;;;;2.50;0.73;;;16.80;76.60;;;;;;5023214;28;20049;-70
2022/08/06 07:53:21;;;;;;;6.68;0.90;;;17.00;75.00;;;;;;5030585;28;20022;-70
2022/08/06 07:55:47;;;;;;;1.35;0.40;;;17.30;75.50;;;;;;5022351;28;20520;-70
2022/08/06 07:58:14;;;;;;;0.73;0.40;;;17.10;75.10;;;;;;5015848;28;20037;-70
2022/08/06 08:00:40;;;;;;;2.28;0.50;;;17.10;73.90;;;;;;5028408;28;20444;-70
2022/08/06 08:08:36;;;;;;;1.42;0.65;;;17.80;72.70;;;;;;5026237;28;20041;-70
2022/08/06 08:11:02;;;;;;;1.50;0.40;;;17.50;72.50;;;;;;5024232;28;20107;-70
2022/08/06 08:13:29;;;;;;;2.75;0.90;;;17.50;71.30;;;;;;5022733;28;20430;-70
2022/08/06 08:15:56;;;;;;;1.65;0.60;;;18.00;71.60;;;;;;5016450;28;20147;-70
2022/08/06 08:18:28;;;;;;;0.82;0.32;;;17.80;70.70;;;;;;5017464;28;20377;-70
2022/08/06 08:20:56;;;;;;;2.85;0.40;;;18.00;70.00;;;;;;5034427;28;20052;-70
2022/08/06 08:23:23;;;;;;;2.00;0.40;;;18.30;68.90;;;;;;5037549;28;20112;-70
2022/08/06 08:25:49;;;;;;;2.63;0.73;;;18.40;69.60;;;;;;5022165;28;20032;-70
2022/08/06 08:28:14;;;;;;;1.15;0.50;;;18.80;68.70;;;;;;5028090;28;20028;-70
2022/08/06 08:30:40;;;;;;;0.47;0.43;;;18.30;68.30;;;;;;5025409;28;20041;-70
2022/08/06 08:33:05;;;;;;;1.85;0.45;;;18.50;68.40;;;;;;5023382;28;20386;-70
2022/08/06 08:35:31;;;;;;;0.32;0.20;;;18.70;67.50;;;;;;5019719;28;20029;-70
2022/08/06 08:37:57;;;;;;;0.77;0.25;;;18.00;66.40;;;;;;5024430;28;20053;-70
2022/08/06 08:40:24;;;;;;;4.25;0.50;;;17.80;67.50;;;;;;5017633;28;20076;-70
2022/08/06 08:42:53;;;;;;;0.55;0.10;;;18.20;67.50;;;;;;5029923;28;20554;-70
2022/08/06 08:45:19;;;;;;;2.13;0.60;;;18.60;65.30;;;;;;5027817;28;20100;-70
2022/08/06 08:47:50;;;;;;;2.28;0.30;;;18.30;64.60;;;;;;5024511;28;20030;-70
2022/08/06 08:50:17;;;;;;;1.55;0.28;;;18.60;64.60;;;;;;5021789;28;20041;-70
2022/08/06 08:52:44;;;;;;;2.50;0.40;;;19.10;63.30;;;;;;5024217;28;20060;-70
2022/08/06 08:55:15;;;;;;;3.03;0.40;;;19.20;62.70;;;;;;5018470;28;20431;-70
2022/08/06 08:57:42;;;;;;;0.93;0.17;;;19.60;62.70;;;;;;5028799;28;20057;-70
2022/08/06 09:00:08;;;;;;;2.58;0.60;;;18.70;62.70;;;;;;5024030;28;20148;-70
2022/08/06 09:02:36;;;;;;;2.33;0.52;;;18.90;63.50;;;;;;5029496;28;20113;-70
2022/08/06 09:05:02;;;;;;;1.60;0.40;;;19.40;62.20;;;;;;5021315;28;20044;-70
2022/08/06 09:07:28;;;;;;;1.02;0.43;;;19.50;61.20;;;;;;5021492;28;20037;-70
2022/08/06 09:09:55;;;;;;;1.13;0.40;;;20.00;60.90;;;;;;5033530;28;20071;-70
2022/08/06 09:12:22;;;;;;;2.00;0.30;;;20.00;62.20;;;;;;5023314;28;20466;-70
2022/08/06 09:14:47;;;;;;;1.58;0.30;;;19.50;62.90;;;;;;5028446;28;20048;-70
2022/08/06 09:17:13;;;;;;;2.03;0.10;;;18.90;59.30;;;;;;5021599;28;20155;-71
2022/08/06 09:19:38;;;;;;;3.97;0.40;;;18.80;61.80;;;;;;5027996;28;20104;-70
2022/08/06 09:22:04;;;;;;;2.05;0.30;;;19.30;63.50;;;;;;5027328;28;20041;-70
2022/08/06 09:24:30;;;;;;;3.83;0.40;;;19.80;62.20;;;;;;5032465;28;20030;-70
2022/08/06 09:27:07;;;;;;;4.20;0.60;;;19.20;61.80;;;;;;5026332;28;20018;-70
2022/08/06 09:29:33;;;;;;;2.53;0.32;;;18.90;63.50;;;;;;5030441;28;20028;-70
2022/08/06 09:32:00;;;;;;;3.25;0.50;;;19.30;61.70;;;;;;5030463;28;20029;-70
2022/08/06 09:34:39;;;;;;;1.95;0.32;;;19.50;59.60;;;;;;5023588;28;20113;-70
2022/08/06 09:37:05;;;;;;;0.95;0.30;;;20.00;58.50;;;;;;5032523;28;20021;-70
2022/08/06 09:39:41;;;;;;;0.93;0.28;;;20.00;56.30;;;;;;5024295;28;20048;-71
2022/08/06 09:42:08;;;;;;;1.02;0.38;;;20.50;55.40;;;;;;5024159;28;20555;-70
2022/08/06 09:44:34;;;;;;;1.38;0.40;;;20.90;54.70;;;;;;5027661;28;20041;-70
2022/08/06 09:47:00;;;;;;;0.68;0.10;;;20.50;56.70;;;;;;5022965;28;20056;-70
2022/08/06 09:49:27;;;;;;;1.55;0.20;;;20.20;54.90;;;;;;5019064;28;20017;-70
2022/08/06 09:52:12;;;;;;;0.90;0.30;;;20.10;55.40;;;;;;5028802;28;20552;-70
2022/08/06 09:54:38;;;;;;;0.55;0.32;;;20.50;54.90;;;;;;5027250;28;20034;-70
2022/08/06 09:57:04;;;;;;;1.60;0.30;;;20.10;56.30;;;;;;5029298;28;20037;-70
2022/08/06 09:59:41;;;;;;;0.77;0.20;;;19.80;58.20;;;;;;5018531;28;20113;-70
2022/08/06 10:02:14;;;;;;;1.52;0.60;;;19.50;59.20;;;;;;5023777;28;20550;-70
2022/08/06 10:04:39;;;;;;;1.65;0.47;;;19.20;60.00;;;;;;5021935;28;20112;-70
2022/08/06 10:07:05;;;;;;;2.63;0.80;;;18.90;60.40;;;;;;5022275;28;20112;-70
2022/08/06 10:09:32;;;;;;;1.05;0.30;;;18.60;61.10;;;;;;5019064;28;20477;-70
2022/08/06 10:12:00;;;;;;;1.88;0.43;;;18.60;62.50;;;;;;5013117;28;20022;-70
2022/08/06 10:14:32;;;;;;;1.95;0.30;;;19.00;62.90;;;;;;5028015;28;20037;-70
2022/08/06 10:17:09;;;;;;;0.45;0.20;;;19.90;61.50;;;;;;5019882;28;20096;-70
2022/08/06 10:19:36;;;;;;;5.40;0.40;;;20.30;59.20;;;;;;5028415;28;20030;-70
2022/08/06 10:22:13;;;;;;;0.47;0.20;;;20.50;57.80;;;;;;5013089;28;20057;-70
2022/08/06 10:24:45;;;;;;;2.20;0.30;;;20.40;56.40;;;;;;5017007;28;20076;-72
2022/08/06 10:27:14;;;;;;;0.93;0.13;;;20.40;54.60;;;;;;5027537;28;20086;-70
2022/08/06 10:29:45;;;;;;;1.75;0.45;;;20.10;54.80;;;;;;5032354;28;20021;-70
2022/08/06 10:32:22;;;;;;;3.33;0.50;;;20.00;56.80;;;;;;5029833;28;20397;-70
2022/08/06 10:34:51;;;;;;;3.03;0.50;;;20.40;54.80;;;;;;5030596;28;20038;-70
2022/08/06 10:37:18;;;;;;;2.85;0.43;;;21.00;55.50;;;;;;5029684;28;20042;-71
2022/08/06 10:39:49;;;;;;;1.25;0.28;;;21.60;53.60;;;;;;5031967;28;20477;-70
2022/08/06 10:42:15;;;;;;;1.85;0.28;;;22.00;52.90;;;;;;5017014;28;20119;-71
2022/08/06 10:44:41;;;;;;;1.48;0.40;;;21.90;50.70;;;;;;5030316;28;20041;-71
2022/08/06 10:47:07;;;;;;;1.00;0.22;;;21.70;51.60;;;;;;5027756;28;20434;-71
2022/08/06 10:49:33;;;;;;;2.35;0.45;;;22.20;49.70;;;;;;5028853;28;20044;-71
2022/08/06 10:52:00;;;;;;;1.67;0.40;;;22.20;50.20;;;;;;5029891;28;20032;-71
2022/08/06 10:54:26;;;;;;;0.75;0.20;;;22.40;51.10;;;;;;5030326;28;20033;-71
2022/08/06 10:56:56;;;;;;;1.65;0.40;;;22.50;50.20;;;;;;5027250;28;20121;-71
2022/08/06 10:59:22;;;;;;;1.30;0.40;;;22.00;52.10;;;;;;5029171;28;20038;-70
2022/08/06 11:02:06;;;;;;;1.65;0.40;;;21.20;52.80;;;;;;5025170;28;20040;-71
2022/08/06 11:04:40;;;;;;;1.95;0.30;;;20.80;54.60;;;;;;5030278;28;20038;-70
2022/08/06 11:07:37;;;;;;;1.60;0.30;;;20.70;56.00;;;;;;5030945;28;20180;-70
2022/08/06 11:10:24;;;;;;;2.63;0.32;;;20.80;54.80;;;;;;5030294;28;20037;-70
2022/08/06 11:12:58;;;;;;;1.65;0.35;;;21.40;53.20;;;;;;5028339;28;20308;-71
2022/08/06 11:15:24;;;;;;;0.52;0.15;;;21.70;52.20;;;;;;5029553;28;20100;-71
2022/08/06 11:18:02;;;;;;;2.15;0.43;;;21.80;52.10;;;;;;5028624;28;20132;-71
2022/08/06 11:20:39;;;;;;;3.47;0.50;;;21.50;51.20;;;;;;5020202;28;20024;-71
2022/08/06 11:23:22;;;;;;;2.80;0.30;;;22.00;50.80;;;;;;5030747;28;20519;-71
2022/08/06 11:25:56;;;;;;;1.38;0.40;;;22.70;48.70;;;;;;5026530;28;20045;-71
2022/08/06 11:28:31;;;;;;;1.50;0.25;;;23.00;48.90;;;;;;5030242;28;20479;-71
2022/08/06 11:30:59;;;;;;;0.52;0.20;;;22.70;50.70;;;;;;5031064;28;20552;-71
2022/08/06 11:33:33;;;;;;;0.35;0.20;;;22.80;47.80;;;;;;5028590;28;20037;-71
2022/08/06 11:36:10;;;;;;;2.40;0.30;;;21.80;50.60;;;;;;5029891;28;20087;-71
2022/08/06 11:38:48;;;;;;;2.30;0.60;;;21.40;52.80;;;;;;5022250;28;20122;-70
2022/08/06 11:41:28;;;;;;;2.08;0.50;;;21.00;53.80;;;;;;5030023;28;20022;-70
2022/08/06 11:43:54;;;;;;;0.50;0.20;;;20.70;54.10;;;;;;5031034;28;20052;-70
2022/08/06 11:46:28;;;;;;;1.70;0.32;;;20.50;53.40;;;;;;5029665;28;20480;-70
2022/08/06 11:49:00;;;;;;;1.42;0.30;;;20.30;54.30;;;;;;5029115;28;20410;-70
2022/08/06 11:52:01;;;;;;;0.95;0.40;;;19.70;55.30;;;;;;5028998;28;20103;-70
2022/08/06 11:54:45;;;;;;;2.33;0.52;;;19.60;55.80;;;;;;5020449;28;20548;-70
2022/08/06 11:57:11;;;;;;;0.77;0.28;;;19.50;55.00;;;;;;5017603;28;20045;-70
2022/08/06 11:59:43;;;;;;;3.38;0.73;;;19.80;55.50;;;;;;5025968;28;20021;-70
2022/08/06 12:02:10;;;;;;;3.72;0.32;;;20.10;54.90;;;;;;5024892;28;20044;-70
2022/08/06 12:04:35;;;;;;;1.60;0.47;;;20.10;55.90;;;;;;5028455;28;20034;-70
2022/08/06 12:07:24;;;;;;;6.55;0.57;;;20.90;53.70;;;;;;5029901;28;20346;-70
2022/08/06 12:10:07;;;;;;;2.67;0.50;;;21.50;51.20;;;;;;5027647;28;20017;-70
2022/08/06 12:12:48;;;;;;;2.90;0.45;;;22.20;49.60;;;;;;5028173;28;20405;-70
2022/08/06 12:15:14;;;;;;;0.73;0.30;;;22.50;48.50;;;;;;5030633;28;20427;-71
2022/08/06 12:17:53;;;;;;;1.98;0.32;;;22.70;48.10;;;;;;5024300;28;20180;-71
2022/08/06 12:20:33;;;;;;;2.50;0.50;;;23.80;46.80;;;;;;5029697;28;20029;-71
2022/08/06 12:22:59;;;;;;;2.40;0.40;;;22.70;46.20;;;;;;5027999;28;20052;-71
2022/08/06 12:25:32;;;;;;;1.30;0.43;;;21.70;48.70;;;;;;5029398;28;20099;-71
2022/08/06 12:27:59;;;;;;;2.90;0.60;;;21.00;49.50;;;;;;5027548;28;20385;-70
2022/08/06 12:30:24;;;;;;;2.92;0.40;;;21.00;49.50;;;;;;5028982;28;20105;-70
2022/08/06 12:33:02;;;;;;;1.00;0.30;;;20.70;48.50;;;;;;5027595;28;20516;-70
2022/08/06 12:35:28;;;;;;;2.47;0.22;;;21.30;48.00;;;;;;5027981;28;20127;-70
2022/08/06 12:37:54;;;;;;;1.38;0.50;;;21.30;46.90;;;;;;5028766;28;20481;-71
2022/08/06 12:40:23;;;;;;;1.75;0.55;;;21.00;47.40;;;;;;5028984;28;20026;-70
2022/08/06 12:42:50;;;;;;;1.67;0.50;;;20.70;51.00;;;;;;5026360;28;20152;-70
2022/08/06 12:45:21;;;;;;;2.75;0.90;;;20.70;50.10;;;;;;5028740;28;20028;-70
2022/08/06 12:48:06;;;;;;;3.10;0.82;;;20.60;50.90;;;;;;5024152;28;20087;-70
2022/08/06 12:50:33;;;;;;;1.77;0.80;;;20.60;51.90;;;;;;5028042;28;20017;-70
2022/08/06 12:53:10;;;;;;;3.00;0.98;;;20.90;50.10;;;;;;5027241;28;20033;-70
2022/08/06 12:55:50;;;;;;;1.63;0.60;;;22.50;46.60;;;;;;5019925;28;20030;-71
2022/08/06 12:58:31;;;;;;;1.75;0.70;;;23.40;45.30;;;;;;5023744;28;20744;-71
2022/08/06 13:00:58;;;;;;;1.50;0.60;;;23.80;41.90;;;;;;5022423;28;20095;-71
2022/08/06 13:03:26;;;;;;;0.80;0.45;;;24.60;42.30;;;;;;5023825;28;20037;-71
2022/08/06 13:05:55;;;;;;;1.60;0.80;;;25.30;39.20;;;;;;5018597;28;20116;-71
2022/08/06 13:08:21;;;;;;;1.85;0.90;;;25.50;41.00;;;;;;5022925;28;20033;-71